• Join FlightAware (Why Join?)
  • Login
  • US Flag 
01:22AM EDT


 

Airport Tracker/Info


-or-


 

Live Flight TrackerFlight Track Log ✈ SKW5535 ✈ 25-Aug-2013 ✈ KDEN - KMSO

Flight Track Log - Related Links

Times and Time Zones

All times are in EDT time to prevent confusion due to time zone crossing. See the SKW5535 flight status page for this flight to view local times or setup timezone preferences in your user account.

Time Position Orientation Groundspeed Altitude Reporting Facility
EDT Latitude Longitude Course Direction KTS MPH feet Rate Location/Type
12:25PM 39.9333 -104.6833 346° North 213 245 7,600  Level Denver TRACON
12:26PM 40.0414 -104.6614 North 252 290 9,800 1,380 Climbing Denver Center
12:27PM 40.3008 -104.8119 347° North  Level FlightAware Approximate
12:27PM 40.1214 -104.6761 352° North 291 335 11,100  Level Denver Center
12:28PM 40.4136 -104.8490 346° North  Level FlightAware Approximate
12:28PM 40.2119 -104.6997 349° North 332 382 12,500  Level Denver Center
12:29PM 40.5264 -104.8861 348° North  Level FlightAware Approximate
12:29PM 40.3125 -104.7261 349° North 342 394 14,500  Level Denver Center
12:30PM 40.6400 -104.9189 346° North  Level FlightAware Approximate
12:30PM 40.4067 -104.7508 349° North 346 398 16,300  Level Denver Center
12:32PM 40.5125 -104.7786 349° North 358 412 17,900 1,320 Climbing Denver Center
12:33PM 40.6108 -104.8047 349° North 361 415 19,100 1,200 Climbing Denver Center
12:34PM 40.7192 -104.8336 349° North 371 427 20,500 1,200 Climbing Denver Center
12:35PM 40.8175 -104.8611 348° North 362 417 21,700 960 Climbing Denver Center
12:36PM 40.9161 -104.9139 338° Northwest 380 437 22,600 900 Climbing Denver Center
12:37PM 41.0317 -104.9686 340° North 391 450 23,600 900 Climbing Denver Center
12:38PM 41.1322 -105.0178 340° North 398 458 24,500 840 Climbing Denver Center
12:39PM 41.2303 -105.0767 336° Northwest 403 464 25,400 840 Climbing Denver Center
12:40PM 41.3153 -105.1942 314° West 397 457 26,300 660 Climbing Denver Center
12:41PM 41.3900 -105.2933 315° West 397 457 27,000 780 Climbing Denver Center
12:42PM 41.4894 -105.4336 313° West 405 466 28,100 720 Climbing Denver Center
12:43PM 41.5778 -105.5539 314° West 406 467 28,600 480 Climbing Denver Center
12:44PM 41.6522 -105.6592 313° West 406 467 29,100 480 Climbing Denver Center
12:45PM 41.7397 -105.7767 315° West 407 468 29,700 480 Climbing Denver Center
12:46PM 41.8167 -105.8872 313° West 407 468 30,200 480 Climbing Denver Center
12:47PM 41.8917 -105.9928 314° West 410 472 30,700 480 Climbing Denver Center
12:48PM 41.9781 -106.1156 313° West 405 466 31,200 480 Climbing Denver Center
12:49PM 42.0517 -106.2206 313° West 405 466 31,700 360 Climbing Denver Center
12:50PM 42.1372 -106.3433 313° West 399 459 32,000 120 Climbing Denver Center
12:51PM 42.2153 -106.4514 314° West 417 480 32,000  Level Denver Center
12:52PM 42.3056 -106.5803 313° West 418 481 32,000  Level Denver Center
12:53PM 42.3828 -106.6917 313° West 428 493 32,000  Level Denver Center
12:54PM 42.4717 -106.8244 312° West 426 490 32,000  Level Denver Center
12:56PM 42.5517 -106.9342 315° West 426 490 32,000  Level Denver Center
12:57PM 42.6433 -107.0692 313° West 433 498 32,000  Level Denver Center
12:58PM 42.7203 -107.1839 312° West 430 495 32,000  Level Denver Center
12:59PM 42.8125 -107.3139 314° West 428 493 32,000  Level Denver Center
12:59PM 42.8642 -107.3914 312° West 432 497 32,000  Level Salt Lake Center
01:00PM 42.9442 -107.5133 312° West 433 498 32,000  Level Salt Lake Center
01:01PM 43.0231 -107.6319 312° West 426 490 32,000  Level Salt Lake Center
01:02PM 43.1036 -107.7522 313° West 428 493 32,000  Level Salt Lake Center
01:03PM 43.1842 -107.8703 313° West 426 490 32,000  Level Salt Lake Center
01:04PM 43.2644 -107.9928 312° West 429 494 32,000  Level Salt Lake Center
01:05PM 43.3453 -108.1128 313° West 429 494 32,000  Level Salt Lake Center
01:06PM 43.4406 -108.2583 312° West 429 494 32,000  Level Salt Lake Center
01:08PM 43.5214 -108.3806 312° West 429 494 32,000  Level Salt Lake Center
01:09PM 43.6003 -108.5003 312° West 424 488 32,000  Level Salt Lake Center
01:10PM 43.6806 -108.6244 312° West 430 495 32,000  Level Salt Lake Center
01:11PM 43.7608 -108.7472 312° West 430 495 32,000  Level Salt Lake Center
01:12PM 43.8406 -108.8717 312° West 431 496 32,000  Level Salt Lake Center
01:13PM 43.9200 -108.9939 312° West 427 491 32,000  Level Salt Lake Center
01:14PM 44.0142 -109.1417 312° West 425 489 32,000  Level Salt Lake Center
01:15PM 44.0931 -109.2661 311° West 428 493 32,000  Level Salt Lake Center
01:16PM 44.1717 -109.3903 311° West 428 493 32,000  Level Salt Lake Center
01:17PM 44.2586 -109.5242 312° West 430 495 32,000  Level Salt Lake Center
01:18PM 44.3333 -109.6447 311° West 430 495 32,000  Level Salt Lake Center
01:19PM 44.4208 -109.7836 311° West 428 493 32,000  Level Salt Lake Center
01:20PM 44.4958 -109.9033 311° West 429 494 32,000  Level Salt Lake Center
01:21PM 44.5822 -110.0431 311° West 427 491 32,000  Level Salt Lake Center
01:22PM 44.6550 -110.1631 310° West 423 487 32,000  Level Salt Lake Center
01:23PM 44.7414 -110.3039 311° West 426 490 32,000  Level Salt Lake Center
01:24PM 44.8153 -110.4242 311° West 426 490 32,000  Level Salt Lake Center
01:25PM 44.9003 -110.5639 311° West 424 488 32,000  Level Salt Lake Center
01:26PM 44.9733 -110.6839 311° West 422 486 32,000  Level Salt Lake Center
01:27PM 45.0583 -110.8250 310° West 424 488 32,000  Level Salt Lake Center
01:28PM 45.1303 -110.9461 310° West 423 487 32,000  Level Salt Lake Center
01:29PM 45.2153 -111.0872 311° West 423 487 32,000  Level Salt Lake Center
01:30PM 45.2883 -111.2094 310° West 426 490 32,000  Level Salt Lake Center
01:31PM 45.3597 -111.3314 310° West 423 487 32,000  Level Salt Lake Center
01:32PM 45.4453 -111.4764 310° West 428 493 32,000  Level Salt Lake Center
01:33PM 45.5181 -111.5986 310° West 424 488 32,000  Level Salt Lake Center
01:34PM 45.6008 -111.7431 309° West 422 486 32,000  Level Salt Lake Center
01:35PM 45.6747 -111.8681 310° West 428 493 32,000  Level Salt Lake Center
01:36PM 45.7592 -112.0133 310° West 426 490 32,000  Level Salt Lake Center
01:37PM 45.8314 -112.1403 309° West 428 493 32,000  Level Salt Lake Center
01:39PM 45.9164 -112.2872 310° West 430 495 32,000 -300 Level Salt Lake Center
01:40PM 45.9883 -112.4125 310° West 427 491 31,500 -1,380 Descending Salt Lake Center
01:41PM 46.0686 -112.5558 309° West 416 479 29,200 -2,100 Descending Salt Lake Center
01:42PM 46.1331 -112.6722 309° West 398 458 27,200 -2,040 Descending Salt Lake Center
01:43PM 46.2108 -112.8106 309° West 398 458 25,000 -2,040 Descending Salt Lake Center
01:44PM 46.2636 -112.9344 302° West 379 436 23,100 -1,860 Descending Salt Lake Center
01:45PM 46.3139 -113.0758 297° West 354 407 21,200 -1,680 Descending Salt Lake Center
01:46PM 46.3558 -113.1944 297° West 346 398 19,700 -1,620 Descending Salt Lake Center
01:47PM 46.4044 -113.3311 297° West 346 398 17,900 -1,620 Descending Salt Lake Center
01:48PM 46.4469 -113.4542 297° West 343 395 16,400 -1,800 Descending Salt Lake Center
01:49PM 46.4900 -113.5792 297° West 325 374 14,300 -2,040 Descending Salt Lake Center
01:50PM 46.5281 -113.6892 297° West 308 354 12,300 -2,040 Descending Salt Lake Center
01:51PM 46.5664 -113.8008 297° West 291 335 10,200 -1,620 Descending Salt Lake Center
01:52PM 46.6006 -113.9031 296° West 284 327 9,000 -600 Descending Salt Lake Center
01:53PM 46.6286 -113.9825 297° West 226 260 9,000 -300 Level Salt Lake Center
01:54PM 46.6708 -114.0350 320° Northwest 200 230 8,400 -480 Descending Salt Lake Center
01:55PM 46.7269 -114.0464 352° North 205 236 8,100 -600 Descending Salt Lake Center
01:56PM 46.7844 -114.0494 358° North 196 226 7,200 -1,140 Descending Salt Lake Center
01:57PM 46.8281 -114.0147 29° Northeast 182 209 5,800 -1,320 Descending Salt Lake Center
01:58PM 46.8708 -114.0161 359° North 157 181 4,500 -1,080 Descending Salt Lake Center
01:59PM 46.8989 -114.0628 311° West 154 177 3,600 -900 Descending Salt Lake Center